Time;durP1;ratioP1;P1;durP2;ratioP2;P2;SDS_P1;SDS_P2;PMS_P1;PMS_P2;Temp;Humidity;BMP_temperature;BMP_pressure;BME280_temperature;BME280_humidity;BME280_pressure;Samples;Min_cycle;Max_cycle;Signal;HPM_P1;HPM_P2
2021/01/29 00:00:29;;;;;;;72.53;27.65;;;;;;;-145.48;100.00;59605.97;6212717;23;20362;-79
2021/01/29 00:02:55;;;;;;;57.03;25.23;;;;;;;-145.48;100.00;59605.97;6244351;23;20465;-79
2021/01/29 00:05:22;;;;;;;72.75;25.55;;;;;;;-145.48;100.00;59605.97;6244143;23;20038;-79
2021/01/29 00:07:47;;;;;;;69.55;26.50;;;;;;;-145.48;100.00;59605.97;6243058;23;20028;-79
2021/01/29 00:10:14;;;;;;;57.30;26.00;;;;;;;-145.48;100.00;59605.97;6246025;23;20439;-79
2021/01/29 00:12:39;;;;;;;69.18;26.88;;;;;;;-145.48;100.00;59605.97;6244745;23;20034;-80
2021/01/29 00:15:07;;;;;;;60.33;23.92;;;;;;;-145.48;100.00;59605.97;6246600;23;20075;-81
2021/01/29 00:17:33;;;;;;;59.20;24.98;;;;;;;-145.48;100.00;59605.97;6246769;23;20141;-80
2021/01/29 00:19:58;;;;;;;76.10;26.60;;;;;;;-145.48;100.00;59605.97;6245923;23;20027;-80
2021/01/29 00:22:23;;;;;;;61.25;28.38;;;;;;;-145.48;100.00;59605.97;6243794;23;20070;-80
2021/01/29 00:24:49;;;;;;;66.47;27.83;;;;;;;-145.48;100.00;59605.97;6243527;23;20087;-80
2021/01/29 00:27:14;;;;;;;78.55;29.48;;;;;;;-145.48;100.00;59605.97;6217154;23;20058;-79
2021/01/29 00:29:40;;;;;;;63.45;27.73;;;;;;;-145.48;100.00;59605.97;6220740;23;20056;-80
2021/01/29 00:32:05;;;;;;;76.70;29.35;;;;;;;-145.48;100.00;59605.97;6247710;23;20058;-79
2021/01/29 00:34:30;;;;;;;71.15;29.80;;;;;;;-145.48;100.00;59605.97;6215983;23;19996;-80
2021/01/29 00:36:55;;;;;;;66.82;29.67;;;;;;;-145.48;100.00;59605.97;6253825;23;20008;-80
2021/01/29 00:39:21;;;;;;;69.82;30.23;;;;;;;-145.48;100.00;59605.97;6252414;23;20029;-80
2021/01/29 00:41:46;;;;;;;65.85;28.88;;;;;;;-145.48;100.00;59605.97;6256783;23;20004;-79
2021/01/29 00:44:11;;;;;;;63.88;29.48;;;;;;;-145.48;100.00;59605.97;6219452;23;20034;-79
2021/01/29 00:46:37;;;;;;;69.20;30.33;;;;;;;-145.48;100.00;59605.97;6247950;22;20043;-80
2021/01/29 00:49:02;;;;;;;63.85;27.42;;;;;;;-145.48;100.00;59605.97;6250314;23;20110;-79
2021/01/29 00:51:27;;;;;;;65.13;29.00;;;;;;;-145.48;100.00;59605.97;6249073;23;20012;-80
2021/01/29 00:53:53;;;;;;;62.70;26.67;;;;;;;-145.48;100.00;59605.97;6249186;23;20000;-79
2021/01/29 00:56:18;;;;;;;60.88;27.10;;;;;;;-145.48;100.00;59605.97;6224142;23;20587;-79
2021/01/29 00:58:43;;;;;;;56.72;27.27;;;;;;;-145.48;100.00;59605.97;6223666;23;20083;-79
2021/01/29 01:01:09;;;;;;;64.65;28.50;;;;;;;-145.48;100.00;59605.97;6218057;23;20007;-79
2021/01/29 01:03:34;;;;;;;64.75;29.40;;;;;;;-145.48;100.00;59605.97;6220669;23;19996;-79
2021/01/29 01:05:59;;;;;;;68.65;29.80;;;;;;;-145.48;100.00;59605.97;6248295;23;20357;-79
2021/01/29 01:08:25;;;;;;;61.80;29.58;;;;;;;-145.48;100.00;59605.97;6249695;23;20000;-79
2021/01/29 01:10:51;;;;;;;68.78;28.42;;;;;;;-145.48;100.00;59605.97;6250391;23;20004;-78
2021/01/29 01:13:16;;;;;;;65.38;29.65;;;;;;;-145.48;100.00;59605.97;6250143;23;20008;-79
2021/01/29 01:15:42;;;;;;;68.80;28.83;;;;;;;-145.48;100.00;59605.97;6226087;23;20035;-79
2021/01/29 01:18:08;;;;;;;57.00;28.45;;;;;;;-145.48;100.00;59605.97;6253851;23;20008;-79
2021/01/29 01:20:35;;;;;;;55.10;28.70;;;;;;;-145.48;100.00;59605.97;6253886;23;20011;-80
2021/01/29 01:23:00;;;;;;;75.40;30.73;;;;;;;-145.48;100.00;59605.97;6254846;23;20462;-80
2021/01/29 01:25:26;;;;;;;61.88;27.70;;;;;;;-145.48;100.00;59605.97;6251631;23;20008;-79
2021/01/29 01:27:52;;;;;;;59.53;28.17;;;;;;;-145.48;100.00;59605.97;6221822;23;20015;-79
2021/01/29 01:30:22;;;;;;;67.93;26.55;;;;;;;-145.48;100.00;59605.97;6222878;23;20107;-80
2021/01/29 01:32:47;;;;;;;70.20;29.30;;;;;;;-145.48;100.00;59605.97;6247490;23;19997;-78
2021/01/29 01:35:15;;;;;;;58.75;27.27;;;;;;;-145.48;100.00;59605.97;6244896;23;20643;-80
2021/01/29 01:37:41;;;;;;;55.38;26.58;;;;;;;-145.48;100.00;59605.97;6241363;23;20004;-79
2021/01/29 01:40:07;;;;;;;53.22;25.08;;;;;;;-145.48;100.00;59605.97;6243536;23;20019;-80
2021/01/29 01:42:33;;;;;;;59.47;27.63;;;;;;;-145.48;100.00;59605.97;6217565;23;20027;-79
2021/01/29 01:44:58;;;;;;;55.95;25.65;;;;;;;-145.48;100.00;59605.97;6220196;23;20000;-80
2021/01/29 01:47:35;;;;;;;58.58;25.38;;;;;;;-145.48;100.00;59605.97;6248495;22;20074;-80
2021/01/29 01:50:29;;;;;;;71.05;27.05;;;;;;;-145.48;100.00;59605.97;6222630;23;20004;-80
2021/01/29 01:52:56;;;;;;;57.30;25.08;;;;;;;-145.48;100.00;59605.97;6210794;23;20875;-80
2021/01/29 01:55:25;;;;;;;52.10;25.25;;;;;;;-145.48;100.00;59605.97;6221315;23;20099;-79
2021/01/29 01:57:54;;;;;;;53.63;25.02;;;;;;;-145.48;100.00;59605.97;6227350;23;20953;-80
2021/01/29 02:00:26;;;;;;;56.38;24.98;;;;;;;-145.48;100.00;59605.97;6229057;23;20502;-80
2021/01/29 02:03:00;;;;;;;52.95;25.25;;;;;;;-145.48;100.00;59605.97;6255151;23;20027;-80
2021/01/29 02:05:32;;;;;;;50.88;25.70;;;;;;;-145.48;100.00;59605.97;6249558;23;20123;-79
2021/01/29 02:08:00;;;;;;;54.08;24.98;;;;;;;-145.48;100.00;59605.97;6253450;23;20015;-80
2021/01/29 02:10:29;;;;;;;51.95;23.60;;;;;;;-145.48;100.00;59605.97;6255495;23;20651;-80
2021/01/29 02:12:55;;;;;;;45.70;23.83;;;;;;;-145.48;100.00;59605.97;6255721;23;20008;-80
2021/01/29 02:15:24;;;;;;;53.28;25.73;;;;;;;-145.48;100.00;59605.97;6246137;23;20004;-79
2021/01/29 02:18:11;;;;;;;39.35;23.90;;;;;;;-145.48;100.00;59605.97;6249544;23;20004;-80
2021/01/29 02:21:14;;;;;;;42.67;23.52;;;;;;;-145.48;100.00;59605.97;6250359;23;20404;-80
2021/01/29 02:24:01;;;;;;;40.97;22.60;;;;;;;-145.48;100.00;59605.97;6222035;23;20039;-80
2021/01/29 02:27:20;;;;;;;39.17;22.48;;;;;;;-145.48;100.00;59605.97;6247241;23;20620;-79
2021/01/29 02:30:13;;;;;;;40.58;22.10;;;;;;;-145.48;100.00;59605.97;6247688;23;20440;-80
2021/01/29 02:32:51;;;;;;;38.10;21.27;;;;;;;-145.48;100.00;59605.97;6247991;23;20008;-79
2021/01/29 02:35:39;;;;;;;34.97;21.55;;;;;;;-145.48;100.00;59605.97;6245938;23;20627;-80
2021/01/29 02:38:31;;;;;;;33.08;21.38;;;;;;;-145.48;100.00;59605.97;6248484;23;20010;-79
2021/01/29 02:41:19;;;;;;;40.05;20.15;;;;;;;-145.48;100.00;59605.97;6250120;23;20673;-79
2021/01/29 02:44:17;;;;;;;35.22;20.75;;;;;;;-145.48;100.00;59605.97;6252316;23;20012;-80
2021/01/29 02:47:00;;;;;;;32.28;18.92;;;;;;;-145.48;100.00;59605.97;6175668;23;20024;-79
2021/01/29 02:49:47;;;;;;;28.35;19.05;;;;;;;-145.48;100.00;59605.97;6250943;23;20010;-80
2021/01/29 02:52:21;;;;;;;39.72;18.95;;;;;;;-145.48;100.00;59605.97;6253364;23;20094;-79
2021/01/29 02:54:55;;;;;;;31.55;17.90;;;;;;;-145.48;100.00;59605.97;6252702;23;20003;-80
2021/01/29 02:57:36;;;;;;;29.02;18.10;;;;;;;-145.48;100.00;59605.97;6248224;23;20003;-80
2021/01/29 03:00:33;;;;;;;26.77;17.70;;;;;;;-145.48;100.00;59605.97;6247930;23;20000;-80
2021/01/29 03:03:10;;;;;;;23.98;15.43;;;;;;;-145.48;100.00;59605.97;6117505;23;20008;-78
2021/01/29 03:05:43;;;;;;;20.63;13.20;;;;;;;-145.48;100.00;59605.97;6254317;23;20000;-80
2021/01/29 03:08:22;;;;;;;21.50;12.23;;;;;;;-145.48;100.00;59605.97;6256905;23;20026;-80
2021/01/29 03:11:04;;;;;;;22.88;13.60;;;;;;;-145.48;100.00;59605.97;6256939;23;20000;-80
2021/01/29 03:13:38;;;;;;;23.75;13.23;;;;;;;-145.48;100.00;59605.97;6257490;23;20485;-80
2021/01/29 03:16:14;;;;;;;20.15;12.23;;;;;;;-145.48;100.00;59605.97;6249203;23;20003;-78
2021/01/29 03:18:52;;;;;;;16.02;10.77;;;;;;;-145.48;100.00;59605.97;6222170;23;20054;-79
2021/01/29 03:21:23;;;;;;;12.23;8.77;;;;;;;-145.48;100.00;59605.97;6248839;23;20000;-79
2021/01/29 03:23:57;;;;;;;11.90;7.43;;;;;;;-145.48;100.00;59605.97;6249933;23;20003;-79
2021/01/29 03:26:30;;;;;;;13.02;7.80;;;;;;;-145.48;100.00;59605.97;6218706;23;20012;-79
2021/01/29 03:29:08;;;;;;;10.45;7.50;;;;;;;-145.48;100.00;59605.97;6247574;23;20030;-80
2021/01/29 03:31:35;;;;;;;10.88;7.22;;;;;;;-145.48;100.00;59605.97;6247823;23;20011;-81
2021/01/29 03:34:24;;;;;;;10.18;7.18;;;;;;;-145.48;100.00;59605.97;6250651;23;20010;-80
2021/01/29 03:36:56;;;;;;;10.57;7.20;;;;;;;-145.48;100.00;59605.97;6250970;23;20045;-80
2021/01/29 03:39:29;;;;;;;10.13;7.32;;;;;;;-145.48;100.00;59605.97;6227479;23;20849;-79
2021/01/29 03:42:07;;;;;;;10.70;7.20;;;;;;;-145.48;100.00;59605.97;6253996;23;20626;-81
2021/01/29 03:44:45;;;;;;;12.30;7.40;;;;;;;-145.48;100.00;59605.97;6254126;23;20038;-79
2021/01/29 03:47:19;;;;;;;9.30;5.95;;;;;;;-145.48;100.00;59605.97;6221844;23;20020;-78
2021/01/29 03:50:10;;;;;;;12.30;7.32;;;;;;;-145.48;100.00;59605.97;6225706;23;20024;-80
2021/01/29 03:52:59;;;;;;;10.55;7.30;;;;;;;-145.48;100.00;59605.97;6223754;23;20059;-79
2021/01/29 03:55:35;;;;;;;12.95;6.78;;;;;;;-145.48;100.00;59605.97;6226933;23;20024;-80
2021/01/29 03:58:33;;;;;;;11.60;7.18;;;;;;;-145.48;100.00;59605.97;6224979;23;20032;-80
2021/01/29 04:01:21;;;;;;;11.05;6.70;;;;;;;-145.48;100.00;59605.97;6219692;23;20031;-79
2021/01/29 04:04:03;;;;;;;6.63;4.63;;;;;;;-145.48;100.00;59605.97;6218993;23;19996;-78
2021/01/29 04:06:35;;;;;;;8.10;5.03;;;;;;;-145.48;100.00;59605.97;6216025;23;20005;-80
2021/01/29 04:09:09;;;;;;;9.98;5.97;;;;;;;-145.48;100.00;59605.97;6218551;23;20015;-80
2021/01/29 04:11:50;;;;;;;6.72;4.80;;;;;;;-145.48;100.00;59605.97;6216712;23;20086;-80
2021/01/29 04:14:46;;;;;;;6.57;4.70;;;;;;;-145.48;100.00;59605.97;6216916;23;20146;-80
2021/01/29 04:17:20;;;;;;;5.80;3.63;;;;;;;-145.48;100.00;59605.97;6221010;23;20000;-81
2021/01/29 04:19:48;;;;;;;5.03;3.42;;;;;;;-145.48;100.00;59605.97;6224291;23;20064;-81
2021/01/29 04:22:26;;;;;;;4.88;3.67;;;;;;;-145.48;100.00;59605.97;6225677;23;20418;-81
2021/01/29 04:25:18;;;;;;;7.05;3.92;;;;;;;-145.48;100.00;59605.97;6226274;23;20000;-82
2021/01/29 04:27:48;;;;;;;4.70;3.38;;;;;;;-145.48;100.00;59605.97;6228950;23;20176;-81
2021/01/29 04:30:22;;;;;;;6.18;2.95;;;;;;;-145.48;100.00;59605.97;6228598;23;20024;-82
2021/01/29 04:32:52;;;;;;;6.53;3.70;;;;;;;-145.48;100.00;59605.97;6226778;23;20004;-81
2021/01/29 04:35:22;;;;;;;5.90;3.92;;;;;;;-145.48;100.00;59605.97;6215810;23;20004;-80
2021/01/29 04:38:03;;;;;;;5.32;2.47;;;;;;;-145.48;100.00;59605.97;6213421;23;20006;-80
2021/01/29 04:40:36;;;;;;;4.85;2.92;;;;;;;-145.48;100.00;59605.97;6214786;23;20307;-78
2021/01/29 04:43:17;;;;;;;8.13;2.20;;;;;;;-145.48;100.00;59605.97;6218037;23;20001;-82
2021/01/29 04:46:21;;;;;;;6.05;1.80;;;;;;;-145.48;100.00;59605.97;6216766;23;20012;-81
2021/01/29 04:48:56;;;;;;;8.77;2.38;;;;;;;-145.48;100.00;59605.97;6126721;23;20036;-82
2021/01/29 04:51:40;;;;;;;4.28;1.20;;;;;;;-145.48;100.00;59605.97;6125029;23;20010;-81
2021/01/29 04:55:02;;;;;;;7.57;2.17;;;;;;;-145.48;100.00;59605.97;6189333;23;20000;-81
2021/01/29 04:58:04;;;;;;;4.78;1.35;;;;;;;-145.48;100.00;59605.97;6127636;23;20068;-82
2021/01/29 05:01:01;;;;;;;4.75;1.63;;;;;;;-145.48;100.00;59605.97;6132084;23;20009;-81
2021/01/29 05:03:36;;;;;;;5.45;1.48;;;;;;;-145.48;100.00;59605.97;6212286;23;20694;-82
2021/01/29 05:06:20;;;;;;;3.22;1.30;;;;;;;-145.48;100.00;59605.97;6220899;23;20005;-81
2021/01/29 05:09:07;;;;;;;6.30;1.63;;;;;;;-145.48;100.00;59605.97;6220592;23;20004;-82
2021/01/29 05:11:38;;;;;;;6.07;1.60;;;;;;;-145.48;100.00;59605.97;6218140;23;20009;-81
2021/01/29 05:14:12;;;;;;;7.40;1.75;;;;;;;-145.48;100.00;59605.97;6216910;23;20032;-80
2021/01/29 05:16:41;;;;;;;9.00;1.98;;;;;;;-145.48;100.00;59605.97;6221459;23;20494;-80
2021/01/29 05:19:25;;;;;;;9.52;1.90;;;;;;;-145.48;100.00;59605.97;6218277;23;20015;-81
2021/01/29 05:22:20;;;;;;;10.40;2.20;;;;;;;-145.48;100.00;59605.97;6220143;23;20031;-81
2021/01/29 05:24:54;;;;;;;12.10;2.20;;;;;;;-145.48;100.00;59605.97;6217076;23;20001;-79
2021/01/29 05:27:44;;;;;;;12.18;2.85;;;;;;;-145.48;100.00;59605.97;6217077;23;20079;-79
2021/01/29 05:30:29;;;;;;;13.52;2.78;;;;;;;-145.48;100.00;59605.97;6216219;23;20083;-81
2021/01/29 05:33:28;;;;;;;11.93;2.60;;;;;;;-145.48;100.00;59605.97;6217126;23;20008;-81
2021/01/29 05:36:15;;;;;;;11.27;1.85;;;;;;;-145.48;100.00;59605.97;6213394;23;19997;-80
2021/01/29 05:39:19;;;;;;;14.57;1.73;;;;;;;-145.48;100.00;59605.97;6218051;23;20082;-81
2021/01/29 05:42:02;;;;;;;12.35;1.85;;;;;;;-145.48;100.00;59605.97;6217316;23;20008;-82
2021/01/29 05:45:05;;;;;;;17.55;1.90;;;;;;;-145.48;100.00;59605.97;6219007;23;20472;-81
2021/01/29 05:47:44;;;;;;;14.45;1.80;;;;;;;-145.48;100.00;59605.97;6238030;23;20032;-80
2021/01/29 05:50:28;;;;;;;11.85;2.00;;;;;;;-145.48;100.00;59605.97;6222298;23;20015;-81
2021/01/29 05:53:12;;;;;;;10.82;2.28;;;;;;;-145.48;100.00;59605.97;6222675;23;20004;-81
2021/01/29 05:55:40;;;;;;;13.73;1.77;;;;;;;-145.48;100.00;59605.97;6246951;23;20000;-81
2021/01/29 05:58:39;;;;;;;16.70;2.15;;;;;;;-145.48;100.00;59605.97;6247181;23;20075;-82
2021/01/29 06:01:31;;;;;;;15.15;2.65;;;;;;;-145.48;100.00;59605.97;6247583;23;20027;-81
2021/01/29 06:04:25;;;;;;;13.18;2.55;;;;;;;-145.48;100.00;59605.97;6221900;23;20477;-80
2021/01/29 06:07:05;;;;;;;9.73;2.67;;;;;;;-145.48;100.00;59605.97;6245616;23;20492;-82
2021/01/29 06:09:49;;;;;;;16.30;2.72;;;;;;;-145.48;100.00;59605.97;6220205;23;20004;-79
2021/01/29 06:12:33;;;;;;;10.43;2.22;;;;;;;-145.48;100.00;59605.97;6249242;23;20007;-79
2021/01/29 06:15:43;;;;;;;16.80;3.70;;;;;;;-145.48;100.00;59605.97;6249447;23;20295;-78
2021/01/29 06:18:41;;;;;;;11.88;2.33;;;;;;;-145.48;100.00;59605.97;6246879;23;20000;-79
2021/01/29 06:21:37;;;;;;;11.13;2.30;;;;;;;-145.48;100.00;59605.97;6247571;23;20127;-79
2021/01/29 06:24:18;;;;;;;14.13;3.85;;;;;;;-145.48;100.00;59605.97;6223269;23;20004;-81
2021/01/29 06:27:12;;;;;;;10.20;3.40;;;;;;;-145.48;100.00;59605.97;6248325;23;20032;-80
2021/01/29 06:30:02;;;;;;;18.90;2.58;;;;;;;-145.48;100.00;59605.97;6220430;23;20028;-80
2021/01/29 06:33:13;;;;;;;15.30;2.85;;;;;;;-145.48;100.00;59605.97;6220230;23;20026;-79
2021/01/29 06:36:02;;;;;;;25.67;4.20;;;;;;;-145.48;100.00;59605.97;6240414;23;20111;-80
2021/01/29 06:39:01;;;;;;;22.27;3.40;;;;;;;-145.48;100.00;59605.97;6249069;23;20075;-80
2021/01/29 06:41:48;;;;;;;23.55;3.72;;;;;;;-145.48;100.00;59605.97;6221803;23;20008;-79
2021/01/29 06:44:40;;;;;;;26.02;4.13;;;;;;;-145.48;100.00;59605.97;6240972;23;20004;-80
2021/01/29 06:47:24;;;;;;;24.77;7.05;;;;;;;-145.48;100.00;59605.97;6243196;23;20032;-80
2021/01/29 06:50:11;;;;;;;24.17;4.68;;;;;;;-145.48;100.00;59605.97;6223088;23;20011;-78
2021/01/29 06:53:07;;;;;;;33.50;4.43;;;;;;;-145.48;100.00;59605.97;6243410;23;20365;-78
2021/01/29 06:55:57;;;;;;;29.70;4.60;;;;;;;-145.48;100.00;59605.97;6241756;23;20058;-79
2021/01/29 06:58:41;;;;;;;28.20;4.82;;;;;;;-145.48;100.00;59605.97;6212751;23;20004;-79
2021/01/29 07:01:27;;;;;;;32.95;4.82;;;;;;;-145.48;100.00;59605.97;6218167;23;20016;-79
2021/01/29 07:04:03;;;;;;;32.47;5.75;;;;;;;-145.48;100.00;59605.97;6243106;23;20012;-79
2021/01/29 07:06:50;;;;;;;34.97;7.90;;;;;;;-145.48;100.00;59605.97;6250308;23;20011;-79
2021/01/29 07:09:42;;;;;;;47.10;5.72;;;;;;;-145.48;100.00;59605.97;6227067;23;20007;-79
2021/01/29 07:12:21;;;;;;;44.97;7.65;;;;;;;-145.48;100.00;59605.97;6227363;23;20000;-79
2021/01/29 07:15:00;;;;;;;37.33;6.95;;;;;;;-145.48;100.00;59605.97;6221652;23;20488;-79
2021/01/29 07:17:33;;;;;;;35.10;5.70;;;;;;;-145.48;100.00;59605.97;6215820;23;20422;-79
2021/01/29 07:20:23;;;;;;;38.42;8.15;;;;;;;-145.48;100.00;59605.97;6217885;23;20365;-80
2021/01/29 07:23:11;;;;;;;34.90;6.80;;;;;;;-145.48;100.00;59605.97;6244391;23;20467;-80
2021/01/29 07:26:04;;;;;;;44.38;5.63;;;;;;;-145.48;100.00;59605.97;6244016;23;20015;-78
2021/01/29 07:28:37;;;;;;;42.22;6.38;;;;;;;-145.48;100.00;59605.97;6238554;23;20023;-78
2021/01/29 07:31:22;;;;;;;42.83;5.70;;;;;;;-145.48;100.00;59605.97;6232111;23;20004;-79
2021/01/29 07:33:53;;;;;;;41.78;7.38;;;;;;;-145.48;100.00;59605.97;6210824;23;20083;-79
2021/01/29 07:36:44;;;;;;;57.08;9.25;;;;;;;-145.48;100.00;59605.97;6238361;23;20042;-79
2021/01/29 07:39:49;;;;;;;39.75;6.75;;;;;;;-145.48;100.00;59605.97;6240679;23;20422;-80
2021/01/29 07:42:42;;;;;;;49.40;6.60;;;;;;;-145.48;100.00;59605.97;6213635;23;20365;-80
2021/01/29 07:45:32;;;;;;;45.60;6.30;;;;;;;-145.48;100.00;59605.97;6236749;23;20000;-80
2021/01/29 07:48:40;;;;;;;45.97;7.05;;;;;;;-145.48;100.00;59605.97;6208330;23;20427;-80
2021/01/29 07:51:30;;;;;;;35.92;5.50;;;;;;;-145.48;100.00;59605.97;6209627;23;20093;-80
2021/01/29 07:54:13;;;;;;;32.10;5.38;;;;;;;-145.48;100.00;59605.97;6210967;23;20016;-80
2021/01/29 07:56:57;;;;;;;43.33;7.43;;;;;;;-145.48;100.00;59605.97;6208665;23;20001;-81
2021/01/29 07:59:34;;;;;;;51.70;8.02;;;;;;;-145.48;100.00;59605.97;6208384;23;20015;-80
2021/01/29 08:02:28;;;;;;;36.80;5.55;;;;;;;-145.48;100.00;59605.97;6213578;23;20000;-80
2021/01/29 08:05:18;;;;;;;49.75;8.23;;;;;;;-145.48;100.00;59605.97;6209359;23;20012;-79
2021/01/29 08:07:49;;;;;;;50.58;7.18;;;;;;;-145.48;100.00;59605.97;6211020;23;20009;-79
2021/01/29 08:10:31;;;;;;;50.85;7.18;;;;;;;-145.48;100.00;59605.97;6210404;23;20092;-79
2021/01/29 08:13:33;;;;;;;50.38;6.95;;;;;;;-145.48;100.00;59605.97;6209013;23;20012;-79
2021/01/29 08:16:01;;;;;;;30.77;5.25;;;;;;;-145.48;100.00;59605.97;6211486;23;20011;-80
2021/01/29 08:18:45;;;;;;;38.88;7.32;;;;;;;-145.48;100.00;59605.97;6211415;23;20052;-80
2021/01/29 08:21:48;;;;;;;30.85;4.93;;;;;;;-145.48;100.00;59605.97;6211211;23;20075;-79
2021/01/29 08:24:25;;;;;;;44.78;7.40;;;;;;;-145.48;100.00;59605.97;6211792;23;19997;-79
2021/01/29 08:27:11;;;;;;;41.80;6.60;;;;;;;-145.48;100.00;59605.97;6209616;23;20084;-80
2021/01/29 08:29:45;;;;;;;32.45;5.72;;;;;;;-145.48;100.00;59605.97;6208680;23;20032;-80
2021/01/29 08:32:38;;;;;;;53.28;8.30;;;;;;;-145.48;100.00;59605.97;6210091;23;20051;-79
2021/01/29 08:35:17;;;;;;;36.85;5.70;;;;;;;-145.48;100.00;59605.97;6214026;23;20059;-80
2021/01/29 08:38:04;;;;;;;48.50;7.10;;;;;;;-145.48;100.00;59605.97;6208098;23;20067;-79
2021/01/29 08:40:38;;;;;;;39.22;6.53;;;;;;;-145.48;100.00;59605.97;6209523;23;20036;-79
2021/01/29 08:43:21;;;;;;;32.25;6.05;;;;;;;-145.48;100.00;59605.97;6210781;23;20103;-79
2021/01/29 08:45:55;;;;;;;44.72;6.68;;;;;;;-145.48;100.00;59605.97;6209847;23;20073;-79
2021/01/29 08:48:31;;;;;;;53.38;7.10;;;;;;;-145.48;100.00;59605.97;6238871;23;20069;-79
2021/01/29 08:51:13;;;;;;;42.83;5.75;;;;;;;-145.48;100.00;59605.97;6241087;23;20004;-79
2021/01/29 08:54:21;;;;;;;40.47;6.63;;;;;;;-145.48;100.00;59605.97;6213521;23;20640;-79
2021/01/29 08:57:01;;;;;;;;;;;;;;;-145.48;100.00;59605.97;6224756;23;20087;-79
2021/01/29 08:59:36;;;;;;;46.53;5.43;;;;;;;-145.48;100.00;59605.97;6246864;23;20697;-79
2021/01/29 09:02:43;;;;;;;46.55;6.25;;;;;;;-145.48;100.00;59605.97;6219488;23;20004;-79
2021/01/29 09:05:16;;;;;;;36.13;5.97;;;;;;;-145.48;100.00;59605.97;6135214;23;20637;-79
2021/01/29 09:07:43;;;;;;;37.60;6.38;;;;;;;-145.48;100.00;59605.97;6246120;23;20004;-80
2021/01/29 09:10:14;;;;;;;44.00;6.85;;;;;;;-145.48;100.00;59605.97;6247302;23;20011;-79
2021/01/29 09:12:41;;;;;;;43.53;5.30;;;;;;;-145.48;100.00;59605.97;6247861;23;20004;-78
2021/01/29 09:15:19;;;;;;;33.47;5.70;;;;;;;-145.48;100.00;59605.97;6245602;23;20541;-79
2021/01/29 09:17:58;;;;;;;50.38;7.55;;;;;;;-145.48;100.00;59605.97;6246713;23;20000;-80
2021/01/29 09:20:28;;;;;;;32.42;6.10;;;;;;;-145.48;100.00;59605.97;6220084;23;20023;-80
2021/01/29 09:23:03;;;;;;;34.15;5.68;;;;;;;-145.48;100.00;59605.97;6245739;23;20036;-79
2021/01/29 09:25:47;;;;;;;48.83;7.03;;;;;;;-145.48;100.00;59605.97;6244805;23;20004;-80
2021/01/29 09:28:34;;;;;;;33.70;7.22;;;;;;;-145.48;100.00;59605.97;6244953;23;20015;-79
2021/01/29 09:31:11;;;;;;;38.35;6.43;;;;;;;-145.48;100.00;59605.97;6223084;23;20019;-80
2021/01/29 09:33:47;;;;;;;44.30;5.90;;;;;;;-145.48;100.00;59605.97;6245964;23;20445;-79
2021/01/29 09:36:20;;;;;;;44.08;7.57;;;;;;;-145.48;100.00;59605.97;6246505;23;20024;-79
2021/01/29 09:38:53;;;;;;;46.80;8.85;;;;;;;-145.48;100.00;59605.97;6245009;23;20004;-79
2021/01/29 09:41:23;;;;;;;39.22;5.78;;;;;;;-145.48;100.00;59605.97;6245186;23;19996;-80
2021/01/29 09:44:00;;;;;;;37.58;6.93;;;;;;;-145.48;100.00;59605.97;6244197;23;20465;-79
2021/01/29 09:46:36;;;;;;;26.80;5.78;;;;;;;-145.48;100.00;59605.97;6244060;22;20039;-80
2021/01/29 09:49:11;;;;;;;48.97;7.22;;;;;;;-145.48;100.00;59605.97;6244552;23;20012;-79
2021/01/29 09:52:04;;;;;;;49.28;6.93;;;;;;;-145.48;100.00;59605.97;6244869;23;20004;-80
2021/01/29 09:54:40;;;;;;;38.53;7.88;;;;;;;-145.48;100.00;59605.97;6246336;23;20082;-80
2021/01/29 09:57:07;;;;;;;;;;;;;;;-145.48;100.00;59605.97;6242791;23;20003;-80
2021/01/29 09:59:57;;;;;;;42.70;5.97;;;;;;;-145.48;100.00;59605.97;6245317;23;20082;-79
2021/01/29 10:02:29;;;;;;;43.83;7.75;;;;;;;-145.48;100.00;59605.97;6244384;23;20019;-79
2021/01/29 10:05:01;;;;;;;38.50;7.30;;;;;;;-145.48;100.00;59605.97;6246508;23;20684;-80
2021/01/29 10:07:30;;;;;;;35.08;5.75;;;;;;;-145.48;100.00;59605.97;6245479;23;20016;-80
2021/01/29 10:10:13;;;;;;;48.67;6.50;;;;;;;-145.48;100.00;59605.97;6245435;23;20015;-79
2021/01/29 10:12:49;;;;;;;45.65;8.02;;;;;;;-145.48;100.00;59605.97;6246184;23;20026;-79
2021/01/29 10:15:23;;;;;;;51.17;6.72;;;;;;;-145.48;100.00;59605.97;6216990;23;20663;-78
2021/01/29 10:18:03;;;;;;;46.63;6.72;;;;;;;-145.48;100.00;59605.97;6243766;23;20007;-79
2021/01/29 10:20:31;;;;;;;39.75;6.10;;;;;;;-145.48;100.00;59605.97;6218122;23;20028;-79
2021/01/29 10:23:23;;;;;;;35.13;7.72;;;;;;;-145.48;100.00;59605.97;6246132;23;20035;-79
2021/01/29 10:25:57;;;;;;;38.28;5.57;;;;;;;-145.48;100.00;59605.97;6218818;23;20000;-80
2021/01/29 10:28:50;;;;;;;34.42;5.85;;;;;;;-145.48;100.00;59605.97;6219250;23;20012;-79
2021/01/29 10:31:21;;;;;;;48.10;7.53;;;;;;;-145.48;100.00;59605.97;6245267;23;20010;-79
2021/01/29 10:33:48;;;;;;;37.58;5.80;;;;;;;-145.48;100.00;59605.97;6246441;23;20008;-80
2021/01/29 10:36:27;;;;;;;40.42;7.65;;;;;;;-145.48;100.00;59605.97;6243016;23;20415;-79
2021/01/29 10:39:11;;;;;;;35.03;6.70;;;;;;;-145.48;100.00;59605.97;6243335;23;20025;-79
2021/01/29 10:41:47;;;;;;;42.90;6.25;;;;;;;-145.48;100.00;59605.97;6241747;23;20004;-79
2021/01/29 10:44:17;;;;;;;37.72;7.18;;;;;;;-145.48;100.00;59605.97;6214462;23;20099;-79
2021/01/29 10:46:59;;;;;;;41.30;8.20;;;;;;;-145.48;100.00;59605.97;6237419;22;20051;-79
2021/01/29 10:49:36;;;;;;;36.53;6.85;;;;;;;-145.48;100.00;59605.97;6237839;23;20012;-79
2021/01/29 10:52:37;;;;;;;42.33;6.38;;;;;;;-145.48;100.00;59605.97;6240803;23;20003;-78
2021/01/29 10:55:15;;;;;;;34.95;6.32;;;;;;;-145.48;100.00;59605.97;6186742;23;20074;-78
2021/01/29 10:57:56;;;;;;;51.60;6.43;;;;;;;-145.48;100.00;59605.97;6239394;23;20707;-79
2021/01/29 11:00:26;;;;;;;34.78;6.90;;;;;;;-145.48;100.00;59605.97;6239329;23;20008;-79
2021/01/29 11:03:04;;;;;;;38.10;6.28;;;;;;;-145.48;100.00;59605.97;6240708;23;20069;-79
2021/01/29 11:05:31;;;;;;;32.67;5.13;;;;;;;-145.48;100.00;59605.97;6238280;23;20012;-79
2021/01/29 11:08:30;;;;;;;38.75;6.45;;;;;;;-145.48;100.00;59605.97;6240144;23;20008;-79
2021/01/29 11:11:10;;;;;;;27.85;5.22;;;;;;;-145.48;100.00;59605.97;6239390;23;20015;-79
2021/01/29 11:14:15;;;;;;;38.40;5.47;;;;;;;-145.48;100.00;59605.97;6240719;23;20011;-79
2021/01/29 11:16:59;;;;;;;38.05;5.80;;;;;;;-145.48;100.00;59605.97;6239917;23;20000;-78
2021/01/29 11:19:33;;;;;;;34.40;8.70;;;;;;;-145.48;100.00;59605.97;6237698;23;20003;-78
2021/01/29 11:22:33;;;;;;;31.58;6.00;;;;;;;-145.48;100.00;59605.97;6211554;23;20046;-78
2021/01/29 11:25:17;;;;;;;47.13;5.93;;;;;;;-145.48;100.00;59605.97;6238014;23;20054;-77
2021/01/29 11:28:06;;;;;;;46.28;6.95;;;;;;;-145.48;100.00;59605.97;6243629;23;20000;-78
2021/01/29 11:30:42;;;;;;;30.70;5.63;;;;;;;-145.48;100.00;59605.97;6243819;23;20004;-78
2021/01/29 11:33:09;;;;;;;36.03;5.00;;;;;;;-145.48;100.00;59605.97;6243727;23;20012;-80
2021/01/29 11:35:42;;;;;;;31.35;5.70;;;;;;;-145.48;100.00;59605.97;6240484;23;20044;-78
2021/01/29 11:38:34;;;;;;;35.50;7.30;;;;;;;-145.48;100.00;59605.97;6244347;23;20006;-78
2021/01/29 11:41:04;;;;;;;40.00;5.43;;;;;;;-145.48;100.00;59605.97;6224784;23;20012;-79
2021/01/29 11:43:39;;;;;;;27.90;5.93;;;;;;;-145.48;100.00;59605.97;6244455;23;20004;-78
2021/01/29 11:46:15;;;;;;;41.40;7.00;;;;;;;-145.48;100.00;59605.97;6245724;23;20004;-78
2021/01/29 11:48:53;;;;;;;29.52;7.22;;;;;;;-145.48;100.00;59605.97;6222748;23;20020;-78
2021/01/29 11:51:28;;;;;;;45.13;6.88;;;;;;;-145.48;100.00;59605.97;6220402;23;20010;-78
2021/01/29 11:54:03;;;;;;;44.83;7.28;;;;;;;-145.48;100.00;59605.97;6248725;23;20536;-78
2021/01/29 11:56:35;;;;;;;39.97;6.03;;;;;;;-145.48;100.00;59605.97;6244750;23;20084;-79